Time,TemperatureF,DewpointF,PressureIn,WindDirection,WindDirectionDegrees,WindSpeedMPH,WindSpeedGustMPH,Humidity,HourlyPrecipIn,Conditions,Clouds,dailyrainin,SoftwareType,DateUTC
2013-06-04 00:05:00,74.5,74.0,29.94,WSW,250,0.0,1.0,98,0.00,,,0.00,weatherlink.com 1.10,2013-06-04 04:05:00,
2013-06-04 00:20:00,74.3,74.0,29.94,WSW,250,0.0,1.0,98,0.01,,,0.01,weatherlink.com 1.10,2013-06-04 04:20:00,
2013-06-04 00:35:00,74.3,74.0,29.94,WSW,250,0.0,0.0,98,0.01,,,0.01,weatherlink.com 1.10,2013-06-04 04:35:00,
2013-06-04 00:50:00,74.3,74.0,29.93,WSW,250,0.0,0.0,98,0.01,,,0.01,weatherlink.com 1.10,2013-06-04 04:50:00,
2013-06-04 01:05:00,74.3,74.0,29.93,WSW,250,0.0,0.0,98,0.01,,,0.01,weatherlink.com 1.10,2013-06-04 05:05:00,
2013-06-04 01:20:00,74.0,73.0,29.93,WSW,250,0.0,0.0,98,0.00,,,0.01,weatherlink.com 1.10,2013-06-04 05:20:00,
2013-06-04 01:35:00,73.9,73.0,29.93,WSW,250,0.0,0.0,98,0.00,,,0.01,weatherlink.com 1.10,2013-06-04 05:35:00,
2013-06-04 01:50:00,73.7,73.0,29.92,WSW,250,0.0,0.0,98,0.00,,,0.01,weatherlink.com 1.10,2013-06-04 05:50:00,
2013-06-04 02:05:00,73.7,73.0,29.92,WSW,250,0.0,0.0,99,0.00,,,0.01,weatherlink.com 1.10,2013-06-04 06:05:00,
2013-06-04 02:20:00,73.7,73.0,29.92,WSW,250,0.0,0.0,98,0.00,,,0.01,weatherlink.com 1.10,2013-06-04 06:20:00,
2013-06-04 02:35:00,73.0,72.0,29.92,WSW,250,1.0,1.0,98,0.00,,,0.01,weatherlink.com 1.10,2013-06-04 06:35:00,
2013-06-04 02:50:00,73.1,73.0,29.92,WSW,250,0.0,1.0,99,0.00,,,0.01,weatherlink.com 1.10,2013-06-04 06:50:00,
2013-06-04 03:04:00,72.6,72.0,29.91,WSW,250,0.0,1.0,98,0.00,,,0.01,weatherlink.com 1.10,2013-06-04 07:04:00,
2013-06-04 03:19:00,72.5,72.0,29.91,WSW,250,0.0,1.0,98,0.00,,,0.01,weatherlink.com 1.10,2013-06-04 07:19:00,
2013-06-04 03:34:00,72.7,72.0,29.91,WSW,250,0.0,1.0,99,0.00,,,0.01,weatherlink.com 1.10,2013-06-04 07:34:00,
2013-06-04 03:49:00,72.9,72.0,29.91,WSW,250,0.0,0.0,98,0.00,,,0.01,weatherlink.com 1.10,2013-06-04 07:49:00,
2013-06-04 04:05:00,72.8,73.0,29.91,WSW,250,0.0,1.0,99,0.00,,,0.01,weatherlink.com 1.10,2013-06-04 08:05:00,
2013-06-04 04:20:00,72.5,72.0,29.91,WSW,250,0.0,0.0,99,0.00,,,0.01,weatherlink.com 1.10,2013-06-04 08:20:00,
2013-06-04 04:36:00,72.4,72.0,29.90,WSW,250,0.0,0.0,99,0.00,,,0.01,weatherlink.com 1.10,2013-06-04 08:36:00,
2013-06-04 04:50:00,72.2,72.0,29.90,WSW,250,0.0,1.0,99,0.00,,,0.01,weatherlink.com 1.10,2013-06-04 08:50:00,
2013-06-04 05:05:00,72.1,72.0,29.91,WSW,250,0.0,1.0,99,0.00,,,0.01,weatherlink.com 1.10,2013-06-04 09:05:00,
2013-06-04 05:20:00,72.1,72.0,29.91,WSW,250,0.0,0.0,99,0.00,,,0.01,weatherlink.com 1.10,2013-06-04 09:20:00,
2013-06-04 05:35:00,72.0,72.0,29.91,WSW,250,0.0,1.0,99,0.00,,,0.01,weatherlink.com 1.10,2013-06-04 09:35:00,
2013-06-04 05:50:00,71.9,72.0,29.92,WSW,250,0.0,0.0,99,0.00,,,0.01,weatherlink.com 1.10,2013-06-04 09:50:00,
2013-06-04 06:05:00,71.7,71.0,29.92,WSW,250,0.0,0.0,99,0.00,,,0.01,weatherlink.com 1.10,2013-06-04 10:05:00,
2013-06-04 06:20:00,71.5,71.0,29.92,WSW,250,0.0,0.0,99,0.00,,,0.01,weatherlink.com 1.10,2013-06-04 10:20:00,
2013-06-04 06:35:00,71.4,71.0,29.93,WSW,250,0.0,0.0,99,0.00,,,0.01,weatherlink.com 1.10,2013-06-04 10:35:00,
2013-06-04 06:50:00,71.4,71.0,29.93,WSW,250,0.0,1.0,99,0.00,,,0.01,weatherlink.com 1.10,2013-06-04 10:50:00,
2013-06-04 07:05:00,71.5,71.0,29.94,WSW,250,0.0,0.0,99,0.00,,,0.01,weatherlink.com 1.10,2013-06-04 11:05:00,
2013-06-04 07:20:00,71.9,72.0,29.95,West,261,0.0,2.0,99,0.00,,,0.01,weatherlink.com 1.10,2013-06-04 11:20:00,
2013-06-04 07:35:00,72.5,72.0,29.95,West,274,0.0,1.0,99,0.00,,,0.01,weatherlink.com 1.10,2013-06-04 11:35:00,
2013-06-04 07:50:00,73.1,73.0,29.95,West,274,0.0,1.0,98,0.00,,,0.01,weatherlink.com 1.10,2013-06-04 11:50:00,
2013-06-04 08:05:00,74.2,73.0,29.95,WNW,288,0.0,2.0,96,0.00,,,0.01,weatherlink.com 1.10,2013-06-04 12:05:00,
2013-06-04 08:20:00,75.5,73.0,29.95,WNW,296,1.0,4.0,92,0.00,,,0.01,weatherlink.com 1.10,2013-06-04 12:20:00,
2013-06-04 08:36:00,76.8,74.0,29.95,WNW,294,1.0,4.0,90,0.00,,,0.01,weatherlink.com 1.10,2013-06-04 12:36:00,
2013-06-04 08:51:00,77.5,74.0,29.96,WNW,294,0.0,2.0,88,0.00,,,0.01,weatherlink.com 1.10,2013-06-04 12:51:00,
2013-06-04 09:06:00,78.6,74.0,29.96,WNW,294,0.0,2.0,86,0.00,,,0.01,weatherlink.com 1.10,2013-06-04 13:06:00,
2013-06-04 09:21:00,79.7,75.0,29.96,WNW,294,1.0,3.0,84,0.00,,,0.01,weatherlink.com 1.10,2013-06-04 13:21:00,
2013-06-04 09:36:00,80.6,74.0,29.97,WNW,296,1.0,4.0,81,0.00,,,0.01,weatherlink.com 1.10,2013-06-04 13:36:00,
2013-06-04 10:06:00,82.7,75.0,29.97,WNW,282,2.0,4.0,78,0.00,,,0.01,weatherlink.com 1.10,2013-06-04 14:06:00,
2013-06-04 10:21:00,83.8,76.0,29.97,East,92,2.0,3.0,76,0.00,,,0.01,weatherlink.com 1.10,2013-06-04 14:21:00,
2013-06-04 10:36:00,84.4,76.0,29.97,ENE,78,1.0,3.0,75,0.00,,,0.01,weatherlink.com 1.10,2013-06-04 14:36:00,
2013-06-04 10:51:00,84.9,75.0,29.97,NE,44,1.0,3.0,72,0.00,,,0.01,weatherlink.com 1.10,2013-06-04 14:51:00,
2013-06-04 11:06:00,85.7,76.0,29.97,East,90,1.0,3.0,73,0.00,,,0.01,weatherlink.com 1.10,2013-06-04 15:06:00,
2013-06-04 11:21:00,88.5,76.0,29.97,WNW,295,1.0,2.0,67,0.00,,,0.01,weatherlink.com 1.10,2013-06-04 15:21:00,
2013-06-04 11:36:00,87.9,76.0,29.97,ESE,121,1.0,5.0,67,0.00,,,0.01,weatherlink.com 1.10,2013-06-04 15:36:00,
2013-06-04 11:51:00,87.5,75.0,29.96,East,98,0.0,5.0,66,0.00,,,0.01,weatherlink.com 1.10,2013-06-04 15:51:00,
2013-06-04 12:06:00,85.0,75.0,29.96,ESE,103,1.0,2.0,72,0.00,,,0.01,weatherlink.com 1.10,2013-06-04 16:06:00,
2013-06-04 12:21:00,79.2,73.0,29.98,WSW,243,2.0,7.0,82,0.10,,,0.11,weatherlink.com 1.10,2013-06-04 16:21:00,
2013-06-04 12:36:00,72.9,71.0,29.98,WSW,242,0.0,5.0,93,0.37,,,0.38,weatherlink.com 1.10,2013-06-04 16:36:00,
2013-06-04 12:51:00,71.1,70.0,29.99,WSW,241,0.0,2.0,95,0.63,,,0.64,weatherlink.com 1.10,2013-06-04 16:51:00,
2013-06-04 13:06:00,71.0,70.0,29.98,WSW,241,0.0,1.0,97,0.86,,,0.87,weatherlink.com 1.10,2013-06-04 17:06:00,
2013-06-04 13:21:00,71.9,71.0,29.99,WSW,241,0.0,1.0,98,0.96,,,1.07,weatherlink.com 1.10,2013-06-04 17:21:00,
2013-06-04 13:36:00,73.3,73.0,29.98,WSW,241,0.0,1.0,99,0.86,,,1.25,weatherlink.com 1.10,2013-06-04 17:36:00,
2013-06-04 13:51:00,73.6,73.0,29.96,East,81,1.0,2.0,98,0.74,,,1.39,weatherlink.com 1.10,2013-06-04 17:51:00,
2013-06-04 14:06:00,76.5,76.0,29.95,SE,131,0.0,2.0,99,0.61,,,1.49,weatherlink.com 1.10,2013-06-04 18:06:00,
2013-06-04 14:21:00,77.4,77.0,29.95,East,84,0.0,1.0,97,0.47,,,1.55,weatherlink.com 1.10,2013-06-04 18:21:00,
2013-06-04 14:51:00,77.6,77.0,29.95,East,84,0.0,1.0,98,0.20,,,1.59,weatherlink.com 1.10,2013-06-04 18:51:00,
2013-06-04 15:06:00,78.3,78.0,29.95,SSW,196,1.0,1.0,98,0.10,,,1.59,weatherlink.com 1.10,2013-06-04 19:06:00,
2013-06-04 15:21:00,80.7,78.0,29.94,East,89,1.0,3.0,91,0.03,,,1.59,weatherlink.com 1.10,2013-06-04 19:21:00,
2013-06-04 15:51:00,79.6,76.0,29.94,East,90,2.0,3.0,88,0.00,,,1.59,weatherlink.com 1.10,2013-06-04 19:51:00,
2013-06-04 16:06:00,79.3,76.0,29.94,East,79,1.0,5.0,90,0.00,,,1.59,weatherlink.com 1.10,2013-06-04 20:06:00,
2013-06-04 16:21:00,78.8,76.0,29.94,East,89,2.0,3.0,90,0.00,,,1.59,weatherlink.com 1.10,2013-06-04 20:21:00,
2013-06-04 16:36:00,78.3,76.0,29.94,East,87,1.0,2.0,91,0.00,,,1.59,weatherlink.com 1.10,2013-06-04 20:36:00,
2013-06-04 16:51:00,77.6,76.0,29.95,NW,317,1.0,2.0,93,0.00,,,1.59,weatherlink.com 1.10,2013-06-04 20:51:00,
2013-06-04 17:06:00,77.2,75.0,29.95,East,94,0.0,2.0,94,0.00,,,1.59,weatherlink.com 1.10,2013-06-04 21:06:00,
2013-06-04 17:21:00,76.9,75.0,29.95,East,94,0.0,1.0,95,0.00,,,1.59,weatherlink.com 1.10,2013-06-04 21:21:00,
2013-06-04 17:37:00,77.0,76.0,29.95,East,94,0.0,2.0,95,0.00,,,1.59,weatherlink.com 1.10,2013-06-04 21:37:00,
2013-06-04 17:52:00,77.2,76.0,29.95,East,94,0.0,1.0,95,0.00,,,1.59,weatherlink.com 1.10,2013-06-04 21:52:00,
2013-06-04 18:06:00,77.7,76.0,29.94,East,91,1.0,3.0,94,0.00,,,1.59,weatherlink.com 1.10,2013-06-04 22:06:00,
2013-06-04 18:22:00,77.9,76.0,29.95,East,90,0.0,2.0,93,0.00,,,1.59,weatherlink.com 1.10,2013-06-04 22:22:00,
2013-06-04 18:36:00,77.9,76.0,29.96,East,90,0.0,1.0,92,0.00,,,1.59,weatherlink.com 1.10,2013-06-04 22:36:00,
2013-06-04 18:51:00,77.4,76.0,29.98,East,90,0.0,1.0,94,0.00,,,1.59,weatherlink.com 1.10,2013-06-04 22:51:00,
2013-06-04 19:06:00,77.3,76.0,29.98,East,90,1.0,2.0,95,0.00,,,1.59,weatherlink.com 1.10,2013-06-04 23:06:00,
2013-06-04 19:22:00,77.0,76.0,29.98,East,94,0.0,3.0,95,0.00,,,1.59,weatherlink.com 1.10,2013-06-04 23:22:00,
2013-06-04 19:36:00,77.1,76.0,29.99,East,94,0.0,1.0,95,0.00,,,1.59,weatherlink.com 1.10,2013-06-04 23:36:00,
2013-06-04 19:51:00,77.1,76.0,29.99,East,94,0.0,1.0,96,0.00,,,1.59,weatherlink.com 1.10,2013-06-04 23:51:00,
2013-06-04 20:06:00,76.9,76.0,29.98,East,94,0.0,1.0,96,0.00,,,1.59,weatherlink.com 1.10,2013-06-05 00:06:00,
2013-06-04 20:21:00,76.6,75.0,29.97,East,94,1.0,2.0,96,0.00,,,1.59,weatherlink.com 1.10,2013-06-05 00:21:00,
2013-06-04 20:36:00,76.2,75.0,29.97,East,94,0.0,1.0,96,0.00,,,1.59,weatherlink.com 1.10,2013-06-05 00:36:00,
2013-06-04 20:52:00,75.8,75.0,29.99,East,94,0.0,1.0,97,0.00,,,1.59,weatherlink.com 1.10,2013-06-05 00:52:00,
2013-06-04 21:07:00,75.6,75.0,29.98,East,94,0.0,0.0,97,0.00,,,1.59,weatherlink.com 1.10,2013-06-05 01:07:00,
2013-06-04 21:22:00,75.6,75.0,29.98,East,94,0.0,0.0,97,0.00,,,1.59,weatherlink.com 1.10,2013-06-05 01:22:00,
2013-06-04 21:37:00,75.7,75.0,29.98,East,94,0.0,1.0,97,0.00,,,1.59,weatherlink.com 1.10,2013-06-05 01:37:00,
2013-06-04 21:52:00,75.6,75.0,29.99,East,94,0.0,1.0,97,0.00,,,1.59,weatherlink.com 1.10,2013-06-05 01:52:00,
2013-06-04 22:07:00,75.5,75.0,30.00,East,94,0.0,1.0,97,0.00,,,1.59,weatherlink.com 1.10,2013-06-05 02:07:00,
2013-06-04 22:22:00,75.5,75.0,30.01,East,94,0.0,0.0,97,0.00,,,1.59,weatherlink.com 1.10,2013-06-05 02:22:00,
2013-06-04 22:37:00,75.5,75.0,30.00,East,94,0.0,0.0,97,0.00,,,1.59,weatherlink.com 1.10,2013-06-05 02:37:00,
2013-06-04 22:52:00,75.4,75.0,30.01,East,94,0.0,1.0,97,0.00,,,1.59,weatherlink.com 1.10,2013-06-05 02:52:00,
2013-06-04 23:07:00,75.2,74.0,30.00,East,94,0.0,0.0,97,0.00,,,1.59,weatherlink.com 1.10,2013-06-05 03:07:00,
2013-06-04 23:22:00,75.1,75.0,30.00,East,94,0.0,2.0,98,0.00,,,1.59,weatherlink.com 1.10,2013-06-05 03:22:00,
2013-06-04 23:37:00,75.0,74.0,29.99,East,94,0.0,1.0,98,0.00,,,1.59,weatherlink.com 1.10,2013-06-05 03:37:00,
2013-06-04 23:52:00,74.8,74.0,29.99,East,94,0.0,1.0,97,0.00,,,1.59,weatherlink.com 1.10,2013-06-05 03:52:00,